sensor_id;sensor_type;location;lat;lon;timestamp;temperature;humidity
9915;DHT22;4996;48.746;9.174;2023-04-06T00:00:37;4.50;94.70
9915;DHT22;4996;48.746;9.174;2023-04-06T00:03:02;4.60;95.10
9915;DHT22;4996;48.746;9.174;2023-04-06T00:05:28;4.50;95.10
9915;DHT22;4996;48.746;9.174;2023-04-06T00:07:57;4.50;95.50
9915;DHT22;4996;48.746;9.174;2023-04-06T00:10:22;4.40;96.10
9915;DHT22;4996;48.746;9.174;2023-04-06T00:12:48;4.30;96.10
9915;DHT22;4996;48.746;9.174;2023-04-06T00:15:13;4.30;96.60
9915;DHT22;4996;48.746;9.174;2023-04-06T00:17:39;4.30;97.10
9915;DHT22;4996;48.746;9.174;2023-04-06T00:20:05;4.30;97.20
9915;DHT22;4996;48.746;9.174;2023-04-06T00:22:30;4.40;97.40
9915;DHT22;4996;48.746;9.174;2023-04-06T00:24:56;4.30;97.30
9915;DHT22;4996;48.746;9.174;2023-04-06T00:27:21;4.30;97.40
9915;DHT22;4996;48.746;9.174;2023-04-06T00:29:47;4.20;97.50
9915;DHT22;4996;48.746;9.174;2023-04-06T00:32:12;4.10;97.70
9915;DHT22;4996;48.746;9.174;2023-04-06T00:34:38;4.10;97.90
9915;DHT22;4996;48.746;9.174;2023-04-06T00:37:03;4.00;98.10
9915;DHT22;4996;48.746;9.174;2023-04-06T00:39:29;4.00;98.30
9915;DHT22;4996;48.746;9.174;2023-04-06T00:41:55;3.90;98.50
9915;DHT22;4996;48.746;9.174;2023-04-06T00:44:22;3.90;98.70
9915;DHT22;4996;48.746;9.174;2023-04-06T00:46:47;4.30;99.00
9915;DHT22;4996;48.746;9.174;2023-04-06T00:49:13;3.90;99.00
9915;DHT22;4996;48.746;9.174;2023-04-06T00:51:38;4.10;99.30
9915;DHT22;4996;48.746;9.174;2023-04-06T00:54:04;3.90;99.40
9915;DHT22;4996;48.746;9.174;2023-04-06T00:56:31;3.90;99.50
9915;DHT22;4996;48.746;9.174;2023-04-06T00:58:56;3.90;99.70
9915;DHT22;4996;48.746;9.174;2023-04-06T01:01:23;3.90;99.70
9915;DHT22;4996;48.746;9.174;2023-04-06T01:03:49;3.90;99.80
9915;DHT22;4996;48.746;9.174;2023-04-06T01:06:15;3.90;99.80
9915;DHT22;4996;48.746;9.174;2023-04-06T01:08:41;3.90;99.90
9915;DHT22;4996;48.746;9.174;2023-04-06T01:11:07;4.00;99.90
9915;DHT22;4996;48.746;9.174;2023-04-06T01:13:32;4.10;99.90
9915;DHT22;4996;48.746;9.174;2023-04-06T01:15:58;4.50;99.90
9915;DHT22;4996;48.746;9.174;2023-04-06T01:18:27;4.20;99.80
9915;DHT22;4996;48.746;9.174;2023-04-06T01:20:53;4.60;99.90
9915;DHT22;4996;48.746;9.174;2023-04-06T01:23:19;4.20;99.90
9915;DHT22;4996;48.746;9.174;2023-04-06T01:25:44;4.20;99.90
9915;DHT22;4996;48.746;9.174;2023-04-06T01:28:10;4.20;99.90
9915;DHT22;4996;48.746;9.174;2023-04-06T01:30:35;4.20;99.90
9915;DHT22;4996;48.746;9.174;2023-04-06T01:33:01;4.20;99.90
9915;DHT22;4996;48.746;9.174;2023-04-06T01:35:27;4.20;99.90
9915;DHT22;4996;48.746;9.174;2023-04-06T01:37:53;4.60;99.90
9915;DHT22;4996;48.746;9.174;2023-04-06T01:40:18;4.30;99.90
9915;DHT22;4996;48.746;9.174;2023-04-06T01:42:44;4.20;99.90
9915;DHT22;4996;48.746;9.174;2023-04-06T01:45:10;4.20;99.90
9915;DHT22;4996;48.746;9.174;2023-04-06T01:47:35;4.10;99.90
9915;DHT22;4996;48.746;9.174;2023-04-06T01:50:01;4.10;99.90
9915;DHT22;4996;48.746;9.174;2023-04-06T01:52:28;4.10;99.90
9915;DHT22;4996;48.746;9.174;2023-04-06T01:54:53;4.10;99.90
9915;DHT22;4996;48.746;9.174;2023-04-06T01:57:19;4.50;99.90
9915;DHT22;4996;48.746;9.174;2023-04-06T01:59:45;4.10;99.90
9915;DHT22;4996;48.746;9.174;2023-04-06T02:02:11;4.00;99.90
9915;DHT22;4996;48.746;9.174;2023-04-06T02:04:38;4.00;99.90
9915;DHT22;4996;48.746;9.174;2023-04-06T02:07:03;4.20;99.90
9915;DHT22;4996;48.746;9.174;2023-04-06T02:09:29;4.40;99.90
9915;DHT22;4996;48.746;9.174;2023-04-06T02:11:55;3.90;99.90
9915;DHT22;4996;48.746;9.174;2023-04-06T02:14:21;4.00;99.90
9915;DHT22;4996;48.746;9.174;2023-04-06T02:16:46;3.90;99.90
9915;DHT22;4996;48.746;9.174;2023-04-06T02:19:12;4.30;99.90
9915;DHT22;4996;48.746;9.174;2023-04-06T02:21:37;4.00;99.90
9915;DHT22;4996;48.746;9.174;2023-04-06T02:24:03;3.90;99.90
9915;DHT22;4996;48.746;9.174;2023-04-06T02:26:28;3.90;99.90
9915;DHT22;4996;48.746;9.174;2023-04-06T02:28:54;4.20;99.90
9915;DHT22;4996;48.746;9.174;2023-04-06T02:31:20;3.80;99.90
9915;DHT22;4996;48.746;9.174;2023-04-06T02:33:45;3.80;99.90
9915;DHT22;4996;48.746;9.174;2023-04-06T02:36:11;3.70;99.90
9915;DHT22;4996;48.746;9.174;2023-04-06T02:38:36;3.70;99.90
9915;DHT22;4996;48.746;9.174;2023-04-06T02:41:02;3.70;99.90
9915;DHT22;4996;48.746;9.174;2023-04-06T02:43:27;3.70;99.90
9915;DHT22;4996;48.746;9.174;2023-04-06T02:45:53;3.70;99.90
9915;DHT22;4996;48.746;9.174;2023-04-06T02:48:18;3.70;99.90
9915;DHT22;4996;48.746;9.174;2023-04-06T02:50:44;3.70;99.90
9915;DHT22;4996;48.746;9.174;2023-04-06T02:53:10;3.60;99.90
9915;DHT22;4996;48.746;9.174;2023-04-06T02:55:35;3.60;99.90
9915;DHT22;4996;48.746;9.174;2023-04-06T02:58:01;3.50;99.90
9915;DHT22;4996;48.746;9.174;2023-04-06T03:00:26;3.50;99.90
9915;DHT22;4996;48.746;9.174;2023-04-06T03:02:52;3.70;99.90
9915;DHT22;4996;48.746;9.174;2023-04-06T03:05:17;3.90;99.90
9915;DHT22;4996;48.746;9.174;2023-04-06T03:07:43;4.00;99.90
9915;DHT22;4996;48.746;9.174;2023-04-06T03:10:09;3.50;99.90
9915;DHT22;4996;48.746;9.174;2023-04-06T03:12:35;3.50;99.90
9915;DHT22;4996;48.746;9.174;2023-04-06T03:15:00;3.50;99.90
9915;DHT22;4996;48.746;9.174;2023-04-06T03:17:26;3.50;99.90
9915;DHT22;4996;48.746;9.174;2023-04-06T03:19:51;3.90;99.90
9915;DHT22;4996;48.746;9.174;2023-04-06T03:22:17;3.60;99.90
9915;DHT22;4996;48.746;9.174;2023-04-06T03:24:42;3.50;99.90
9915;DHT22;4996;48.746;9.174;2023-04-06T03:27:08;3.50;99.90
9915;DHT22;4996;48.746;9.174;2023-04-06T03:29:33;3.50;99.90
9915;DHT22;4996;48.746;9.174;2023-04-06T03:31:59;3.60;99.90
9915;DHT22;4996;48.746;9.174;2023-04-06T03:34:24;3.90;99.90
9915;DHT22;4996;48.746;9.174;2023-04-06T03:36:50;3.40;99.90
9915;DHT22;4996;48.746;9.174;2023-04-06T03:39:15;3.60;99.90
9915;DHT22;4996;48.746;9.174;2023-04-06T03:41:41;3.40;99.90
9915;DHT22;4996;48.746;9.174;2023-04-06T03:44:07;3.40;99.90
9915;DHT22;4996;48.746;9.174;2023-04-06T03:46:33;3.40;99.90
9915;DHT22;4996;48.746;9.174;2023-04-06T03:48:58;3.40;99.90
9915;DHT22;4996;48.746;9.174;2023-04-06T03:51:24;3.70;99.90
9915;DHT22;4996;48.746;9.174;2023-04-06T03:53:50;3.30;99.90
9915;DHT22;4996;48.746;9.174;2023-04-06T03:56:16;3.30;99.90
9915;DHT22;4996;48.746;9.174;2023-04-06T03:58:42;3.30;99.90
9915;DHT22;4996;48.746;9.174;2023-04-06T04:01:09;3.30;99.90
9915;DHT22;4996;48.746;9.174;2023-04-06T04:03:35;3.30;99.90
9915;DHT22;4996;48.746;9.174;2023-04-06T04:06:00;3.30;99.90
9915;DHT22;4996;48.746;9.174;2023-04-06T04:08:26;3.40;99.90
9915;DHT22;4996;48.746;9.174;2023-04-06T04:10:51;3.30;99.90
9915;DHT22;4996;48.746;9.174;2023-04-06T04:13:17;3.50;99.90
9915;DHT22;4996;48.746;9.174;2023-04-06T04:15:42;3.30;99.90
9915;DHT22;4996;48.746;9.174;2023-04-06T04:18:08;3.30;99.90
9915;DHT22;4996;48.746;9.174;2023-04-06T04:20:33;3.30;99.90
9915;DHT22;4996;48.746;9.174;2023-04-06T04:22:59;3.30;99.90
9915;DHT22;4996;48.746;9.174;2023-04-06T04:25:25;3.30;99.90
9915;DHT22;4996;48.746;9.174;2023-04-06T04:27:50;3.70;99.90
9915;DHT22;4996;48.746;9.174;2023-04-06T04:30:16;3.30;99.90
9915;DHT22;4996;48.746;9.174;2023-04-06T04:32:41;3.30;99.90
9915;DHT22;4996;48.746;9.174;2023-04-06T04:35:07;3.30;99.90
9915;DHT22;4996;48.746;9.174;2023-04-06T04:37:33;3.20;99.90
9915;DHT22;4996;48.746;9.174;2023-04-06T04:40:00;3.20;99.90
9915;DHT22;4996;48.746;9.174;2023-04-06T04:42:26;3.20;99.90
9915;DHT22;4996;48.746;9.174;2023-04-06T04:44:51;3.10;99.90
9915;DHT22;4996;48.746;9.174;2023-04-06T04:47:17;3.50;99.90
9915;DHT22;4996;48.746;9.174;2023-04-06T04:49:42;3.00;99.90
9915;DHT22;4996;48.746;9.174;2023-04-06T04:52:08;3.00;99.90
9915;DHT22;4996;48.746;9.174;2023-04-06T04:54:33;3.10;99.90
9915;DHT22;4996;48.746;9.174;2023-04-06T04:56:59;3.10;99.90
9915;DHT22;4996;48.746;9.174;2023-04-06T04:59:24;3.60;99.90
9915;DHT22;4996;48.746;9.174;2023-04-06T05:01:50;3.20;99.90
9915;DHT22;4996;48.746;9.174;2023-04-06T05:04:15;3.20;99.90
9915;DHT22;4996;48.746;9.174;2023-04-06T05:06:41;3.10;99.90
9915;DHT22;4996;48.746;9.174;2023-04-06T05:09:06;3.10;99.90
9915;DHT22;4996;48.746;9.174;2023-04-06T05:11:32;3.10;99.90
9915;DHT22;4996;48.746;9.174;2023-04-06T05:13:59;3.20;99.90
9915;DHT22;4996;48.746;9.174;2023-04-06T05:16:24;3.20;99.90
9915;DHT22;4996;48.746;9.174;2023-04-06T05:18:50;3.20;99.90
9915;DHT22;4996;48.746;9.174;2023-04-06T05:21:16;3.20;99.90
9915;DHT22;4996;48.746;9.174;2023-04-06T05:23:41;3.10;99.90
9915;DHT22;4996;48.746;9.174;2023-04-06T05:26:07;3.20;99.90
9915;DHT22;4996;48.746;9.174;2023-04-06T05:28:33;3.30;99.90
9915;DHT22;4996;48.746;9.174;2023-04-06T05:30:58;3.30;99.90
9915;DHT22;4996;48.746;9.174;2023-04-06T05:33:24;3.40;99.90
9915;DHT22;4996;48.746;9.174;2023-04-06T05:35:50;3.50;99.90
9915;DHT22;4996;48.746;9.174;2023-04-06T05:38:15;3.60;99.90
9915;DHT22;4996;48.746;9.174;2023-04-06T05:40:41;3.60;99.90
9915;DHT22;4996;48.746;9.174;2023-04-06T05:43:07;4.00;99.90
9915;DHT22;4996;48.746;9.174;2023-04-06T05:45:33;3.70;99.90
9915;DHT22;4996;48.746;9.174;2023-04-06T05:47:58;3.70;99.90
9915;DHT22;4996;48.746;9.174;2023-04-06T05:50:24;3.80;99.90
9915;DHT22;4996;48.746;9.174;2023-04-06T05:52:50;4.00;99.90
9915;DHT22;4996;48.746;9.174;2023-04-06T05:55:15;4.50;99.90
9915;DHT22;4996;48.746;9.174;2023-04-06T05:57:41;4.00;99.90
9915;DHT22;4996;48.746;9.174;2023-04-06T06:00:07;4.60;99.90
9915;DHT22;4996;48.746;9.174;2023-04-06T06:02:35;4.20;99.90
9915;DHT22;4996;48.746;9.174;2023-04-06T06:05:00;4.30;99.90
9915;DHT22;4996;48.746;9.174;2023-04-06T06:07:26;4.40;99.90
9915;DHT22;4996;48.746;9.174;2023-04-06T06:09:51;4.50;99.90
9915;DHT22;4996;48.746;9.174;2023-04-06T06:12:17;4.60;99.90
9915;DHT22;4996;48.746;9.174;2023-04-06T06:14:42;5.00;99.90
9915;DHT22;4996;48.746;9.174;2023-04-06T06:17:08;4.70;99.90
9915;DHT22;4996;48.746;9.174;2023-04-06T06:19:33;5.10;99.90
9915;DHT22;4996;48.746;9.174;2023-04-06T06:21:59;5.10;99.90
9915;DHT22;4996;48.746;9.174;2023-04-06T06:24:27;5.20;99.90
9915;DHT22;4996;48.746;9.174;2023-04-06T06:26:53;5.00;99.90
9915;DHT22;4996;48.746;9.174;2023-04-06T06:29:18;5.00;99.90
9915;DHT22;4996;48.746;9.174;2023-04-06T06:31:44;5.10;99.90
9915;DHT22;4996;48.746;9.174;2023-04-06T06:34:09;5.50;99.90
9915;DHT22;4996;48.746;9.174;2023-04-06T06:36:36;5.30;99.90
9915;DHT22;4996;48.746;9.174;2023-04-06T06:39:01;5.30;99.90
9915;DHT22;4996;48.746;9.174;2023-04-06T06:41:28;5.30;99.90
9915;DHT22;4996;48.746;9.174;2023-04-06T06:43:54;5.30;99.90
9915;DHT22;4996;48.746;9.174;2023-04-06T06:46:20;5.80;99.90
9915;DHT22;4996;48.746;9.174;2023-04-06T06:48:46;5.50;99.90
9915;DHT22;4996;48.746;9.174;2023-04-06T06:51:11;5.80;99.90
9915;DHT22;4996;48.746;9.174;2023-04-06T06:53:37;5.70;99.90
9915;DHT22;4996;48.746;9.174;2023-04-06T06:56:03;5.90;99.90
9915;DHT22;4996;48.746;9.174;2023-04-06T06:58:28;5.80;99.90
9915;DHT22;4996;48.746;9.174;2023-04-06T07:01:00;6.30;99.90
9915;DHT22;4996;48.746;9.174;2023-04-06T07:03:26;5.80;99.90
9915;DHT22;4996;48.746;9.174;2023-04-06T07:05:52;5.90;99.90
9915;DHT22;4996;48.746;9.174;2023-04-06T07:08:21;6.30;99.90
9915;DHT22;4996;48.746;9.174;2023-04-06T07:10:48;6.00;99.90
9915;DHT22;4996;48.746;9.174;2023-04-06T07:13:14;6.30;99.90
9915;DHT22;4996;48.746;9.174;2023-04-06T07:15:47;6.60;99.90
9915;DHT22;4996;48.746;9.174;2023-04-06T07:18:12;6.70;99.90
9915;DHT22;4996;48.746;9.174;2023-04-06T07:20:38;6.80;99.90
9915;DHT22;4996;48.746;9.174;2023-04-06T07:23:04;7.00;99.90
9915;DHT22;4996;48.746;9.174;2023-04-06T07:25:29;7.10;99.60
9915;DHT22;4996;48.746;9.174;2023-04-06T07:27:55;7.20;99.60
9915;DHT22;4996;48.746;9.174;2023-04-06T07:30:21;7.40;99.30
9915;DHT22;4996;48.746;9.174;2023-04-06T07:32:47;7.50;99.00
9915;DHT22;4996;48.746;9.174;2023-04-06T07:35:14;7.60;97.60
9915;DHT22;4996;48.746;9.174;2023-04-06T07:37:40;7.60;98.60
9915;DHT22;4996;48.746;9.174;2023-04-06T07:40:06;7.70;97.40
9915;DHT22;4996;48.746;9.174;2023-04-06T07:42:31;7.90;98.00
9915;DHT22;4996;48.746;9.174;2023-04-06T07:44:58;8.00;98.30
9915;DHT22;4996;48.746;9.174;2023-04-06T07:47:23;8.10;98.20
9915;DHT22;4996;48.746;9.174;2023-04-06T07:49:49;8.40;98.30
9915;DHT22;4996;48.746;9.174;2023-04-06T07:52:15;8.60;98.10
9915;DHT22;4996;48.746;9.174;2023-04-06T07:54:40;8.70;97.80
9915;DHT22;4996;48.746;9.174;2023-04-06T07:57:07;9.00;97.40
9915;DHT22;4996;48.746;9.174;2023-04-06T07:59:32;8.90;97.30
9915;DHT22;4996;48.746;9.174;2023-04-06T08:01:58;9.20;97.10
9915;DHT22;4996;48.746;9.174;2023-04-06T08:04:23;9.20;96.80
9915;DHT22;4996;48.746;9.174;2023-04-06T08:06:48;9.50;96.20
9915;DHT22;4996;48.746;9.174;2023-04-06T08:09:14;9.50;95.70
9915;DHT22;4996;48.746;9.174;2023-04-06T08:11:40;9.70;95.20
9915;DHT22;4996;48.746;9.174;2023-04-06T08:14:05;10.00;94.70
9915;DHT22;4996;48.746;9.174;2023-04-06T08:16:31;10.20;93.90
9915;DHT22;4996;48.746;9.174;2023-04-06T08:18:56;10.20;93.80
9915;DHT22;4996;48.746;9.174;2023-04-06T08:21:22;10.40;93.40
9915;DHT22;4996;48.746;9.174;2023-04-06T08:23:47;10.50;93.30
9915;DHT22;4996;48.746;9.174;2023-04-06T08:26:13;10.60;93.60
9915;DHT22;4996;48.746;9.174;2023-04-06T08:28:39;10.60;92.70
9915;DHT22;4996;48.746;9.174;2023-04-06T08:31:05;10.90;91.90
9915;DHT22;4996;48.746;9.174;2023-04-06T08:33:31;11.00;91.60
9915;DHT22;4996;48.746;9.174;2023-04-06T08:35:57;11.10;91.40
9915;DHT22;4996;48.746;9.174;2023-04-06T08:38:22;11.20;91.30
9915;DHT22;4996;48.746;9.174;2023-04-06T08:40:48;11.40;88.20
9915;DHT22;4996;48.746;9.174;2023-04-06T08:43:17;11.70;87.80
9915;DHT22;4996;48.746;9.174;2023-04-06T08:45:44;12.00;85.70
9915;DHT22;4996;48.746;9.174;2023-04-06T08:48:11;12.10;83.80
9915;DHT22;4996;48.746;9.174;2023-04-06T08:50:38;12.40;80.30
9915;DHT22;4996;48.746;9.174;2023-04-06T08:53:06;12.80;78.80
9915;DHT22;4996;48.746;9.174;2023-04-06T08:55:31;13.20;76.20
9915;DHT22;4996;48.746;9.174;2023-04-06T08:57:58;13.40;71.40
9915;DHT22;4996;48.746;9.174;2023-04-06T09:00:25;13.50;72.10
9915;DHT22;4996;48.746;9.174;2023-04-06T09:02:53;13.70;70.40
9915;DHT22;4996;48.746;9.174;2023-04-06T09:05:20;13.50;66.10
9915;DHT22;4996;48.746;9.174;2023-04-06T09:07:46;13.80;63.80
9915;DHT22;4996;48.746;9.174;2023-04-06T09:10:12;13.80;61.40
9915;DHT22;4996;48.746;9.174;2023-04-06T09:12:37;13.80;61.20
9915;DHT22;4996;48.746;9.174;2023-04-06T09:15:03;13.90;61.30
9915;DHT22;4996;48.746;9.174;2023-04-06T09:17:30;14.10;60.20
9915;DHT22;4996;48.746;9.174;2023-04-06T09:19:59;14.00;58.50
9915;DHT22;4996;48.746;9.174;2023-04-06T09:22:25;13.90;56.60
9915;DHT22;4996;48.746;9.174;2023-04-06T09:24:53;14.20;56.70
9915;DHT22;4996;48.746;9.174;2023-04-06T09:27:39;14.30;58.30
9915;DHT22;4996;48.746;9.174;2023-04-06T09:30:08;14.30;56.60
9915;DHT22;4996;48.746;9.174;2023-04-06T09:33:04;14.30;57.70
9915;DHT22;4996;48.746;9.174;2023-04-06T09:35:30;14.60;56.80
9915;DHT22;4996;48.746;9.174;2023-04-06T09:37:56;14.30;55.90
9915;DHT22;4996;48.746;9.174;2023-04-06T09:40:22;14.20;53.70
9915;DHT22;4996;48.746;9.174;2023-04-06T09:42:49;13.90;54.20
9915;DHT22;4996;48.746;9.174;2023-04-06T09:45:19;14.00;54.40
9915;DHT22;4996;48.746;9.174;2023-04-06T09:47:46;14.00;53.20
9915;DHT22;4996;48.746;9.174;2023-04-06T09:50:13;14.00;54.40
9915;DHT22;4996;48.746;9.174;2023-04-06T09:52:49;14.00;55.40
9915;DHT22;4996;48.746;9.174;2023-04-06T09:55:54;14.40;54.50
9915;DHT22;4996;48.746;9.174;2023-04-06T09:58:13;14.40;53.90
9915;DHT22;4996;48.746;9.174;2023-04-06T10:01:10;14.40;54.00
9915;DHT22;4996;48.746;9.174;2023-04-06T10:03:53;14.50;51.60
9915;DHT22;4996;48.746;9.174;2023-04-06T10:06:22;14.20;53.20
9915;DHT22;4996;48.746;9.174;2023-04-06T10:08:50;14.50;52.90
9915;DHT22;4996;48.746;9.174;2023-04-06T10:11:17;14.50;53.10
9915;DHT22;4996;48.746;9.174;2023-04-06T10:13:43;14.30;53.50
9915;DHT22;4996;48.746;9.174;2023-04-06T10:16:09;14.30;54.10
9915;DHT22;4996;48.746;9.174;2023-04-06T10:18:35;14.10;52.60
9915;DHT22;4996;48.746;9.174;2023-04-06T10:21:22;14.30;52.40
9915;DHT22;4996;48.746;9.174;2023-04-06T10:23:54;14.20;52.10
9915;DHT22;4996;48.746;9.174;2023-04-06T10:26:21;14.20;52.30
9915;DHT22;4996;48.746;9.174;2023-04-06T10:28:47;13.80;51.80
9915;DHT22;4996;48.746;9.174;2023-04-06T10:31:13;13.70;51.00
9915;DHT22;4996;48.746;9.174;2023-04-06T10:33:39;13.60;51.40
9915;DHT22;4996;48.746;9.174;2023-04-06T10:36:13;13.60;52.10
9915;DHT22;4996;48.746;9.174;2023-04-06T10:38:40;13.50;51.40
9915;DHT22;4996;48.746;9.174;2023-04-06T10:41:11;13.50;52.30
9915;DHT22;4996;48.746;9.174;2023-04-06T10:43:38;13.40;52.30
9915;DHT22;4996;48.746;9.174;2023-04-06T10:46:05;13.50;52.40
9915;DHT22;4996;48.746;9.174;2023-04-06T10:48:44;13.80;52.50
9915;DHT22;4996;48.746;9.174;2023-04-06T10:51:16;14.00;52.20
9915;DHT22;4996;48.746;9.174;2023-04-06T10:53:43;14.00;52.80
9915;DHT22;4996;48.746;9.174;2023-04-06T10:56:11;13.90;53.00
9915;DHT22;4996;48.746;9.174;2023-04-06T10:58:47;13.80;52.10
9915;DHT22;4996;48.746;9.174;2023-04-06T11:01:15;13.80;52.00
9915;DHT22;4996;48.746;9.174;2023-04-06T11:03:48;13.90;51.80
9915;DHT22;4996;48.746;9.174;2023-04-06T11:06:18;14.20;51.30
9915;DHT22;4996;48.746;9.174;2023-04-06T11:08:45;14.50;50.60
9915;DHT22;4996;48.746;9.174;2023-04-06T11:11:12;15.00;51.10
9915;DHT22;4996;48.746;9.174;2023-04-06T11:13:45;15.30;49.90
9915;DHT22;4996;48.746;9.174;2023-04-06T11:16:17;15.70;49.50
9915;DHT22;4996;48.746;9.174;2023-04-06T11:18:48;15.70;50.60
9915;DHT22;4996;48.746;9.174;2023-04-06T11:21:13;16.10;50.90
9915;DHT22;4996;48.746;9.174;2023-04-06T11:23:39;16.50;49.70
9915;DHT22;4996;48.746;9.174;2023-04-06T11:26:13;16.40;49.00
9915;DHT22;4996;48.746;9.174;2023-04-06T11:28:42;17.10;49.20
9915;DHT22;4996;48.746;9.174;2023-04-06T11:31:09;18.20;48.50
9915;DHT22;4996;48.746;9.174;2023-04-06T11:33:38;19.40;47.60
9915;DHT22;4996;48.746;9.174;2023-04-06T11:36:05;19.50;45.80
9915;DHT22;4996;48.746;9.174;2023-04-06T11:38:31;19.40;45.10
9915;DHT22;4996;48.746;9.174;2023-04-06T11:40:57;19.90;45.10
9915;DHT22;4996;48.746;9.174;2023-04-06T11:43:29;20.70;45.20
9915;DHT22;4996;48.746;9.174;2023-04-06T11:46:03;20.90;43.50
9915;DHT22;4996;48.746;9.174;2023-04-06T11:48:29;20.30;42.80
9915;DHT22;4996;48.746;9.174;2023-04-06T11:50:58;20.50;42.50
9915;DHT22;4996;48.746;9.174;2023-04-06T11:53:27;19.90;42.50
9915;DHT22;4996;48.746;9.174;2023-04-06T11:55:53;19.10;43.90
9915;DHT22;4996;48.746;9.174;2023-04-06T11:58:18;19.50;43.00
9915;DHT22;4996;48.746;9.174;2023-04-06T12:00:44;19.50;42.70
9915;DHT22;4996;48.746;9.174;2023-04-06T12:03:11;19.30;43.60
9915;DHT22;4996;48.746;9.174;2023-04-06T12:05:37;19.40;43.30
9915;DHT22;4996;48.746;9.174;2023-04-06T12:08:03;19.90;42.90
9915;DHT22;4996;48.746;9.174;2023-04-06T12:10:29;20.50;42.30
9915;DHT22;4996;48.746;9.174;2023-04-06T12:12:55;19.60;41.80
9915;DHT22;4996;48.746;9.174;2023-04-06T12:15:20;19.40;41.80
9915;DHT22;4996;48.746;9.174;2023-04-06T12:17:46;19.50;41.70
9915;DHT22;4996;48.746;9.174;2023-04-06T12:20:11;19.00;41.90
9915;DHT22;4996;48.746;9.174;2023-04-06T12:22:37;19.80;42.20
9915;DHT22;4996;48.746;9.174;2023-04-06T12:25:03;21.00;41.90
9915;DHT22;4996;48.746;9.174;2023-04-06T12:27:28;20.40;40.80
9915;DHT22;4996;48.746;9.174;2023-04-06T12:29:54;20.20;41.20
9915;DHT22;4996;48.746;9.174;2023-04-06T12:32:20;20.30;41.50
9915;DHT22;4996;48.746;9.174;2023-04-06T12:34:46;20.30;42.10
9915;DHT22;4996;48.746;9.174;2023-04-06T12:37:12;20.70;41.00
9915;DHT22;4996;48.746;9.174;2023-04-06T12:39:37;20.20;40.90
9915;DHT22;4996;48.746;9.174;2023-04-06T12:42:03;20.70;40.50
9915;DHT22;4996;48.746;9.174;2023-04-06T12:44:29;20.80;40.70
9915;DHT22;4996;48.746;9.174;2023-04-06T12:46:54;20.30;40.40
9915;DHT22;4996;48.746;9.174;2023-04-06T12:49:20;20.20;40.50
9915;DHT22;4996;48.746;9.174;2023-04-06T12:51:47;20.30;40.40
9915;DHT22;4996;48.746;9.174;2023-04-06T12:54:12;20.20;40.60
9915;DHT22;4996;48.746;9.174;2023-04-06T12:56:38;20.20;40.30
9915;DHT22;4996;48.746;9.174;2023-04-06T12:59:04;19.80;39.80
9915;DHT22;4996;48.746;9.174;2023-04-06T13:01:30;19.60;39.90
9915;DHT22;4996;48.746;9.174;2023-04-06T13:03:56;19.00;40.20
9915;DHT22;4996;48.746;9.174;2023-04-06T13:06:23;19.40;40.70
9915;DHT22;4996;48.746;9.174;2023-04-06T13:08:52;19.30;40.30
9915;DHT22;4996;48.746;9.174;2023-04-06T13:11:18;19.00;40.10
9915;DHT22;4996;48.746;9.174;2023-04-06T13:13:46;18.80;39.50
9915;DHT22;4996;48.746;9.174;2023-04-06T13:16:11;18.30;39.90
9915;DHT22;4996;48.746;9.174;2023-04-06T13:18:37;18.50;40.40
9915;DHT22;4996;48.746;9.174;2023-04-06T13:21:04;17.90;39.60
9915;DHT22;4996;48.746;9.174;2023-04-06T13:23:31;17.70;40.20
9915;DHT22;4996;48.746;9.174;2023-04-06T13:26:06;17.40;41.00
9915;DHT22;4996;48.746;9.174;2023-04-06T13:28:33;17.50;40.80
9915;DHT22;4996;48.746;9.174;2023-04-06T13:31:00;17.00;40.30
9915;DHT22;4996;48.746;9.174;2023-04-06T13:33:27;16.90;41.40
9915;DHT22;4996;48.746;9.174;2023-04-06T13:35:52;16.90;40.90
9915;DHT22;4996;48.746;9.174;2023-04-06T13:38:18;16.80;40.70
9915;DHT22;4996;48.746;9.174;2023-04-06T13:40:43;16.80;41.40
9915;DHT22;4996;48.746;9.174;2023-04-06T13:43:09;17.10;40.80
9915;DHT22;4996;48.746;9.174;2023-04-06T13:45:35;17.30;40.90
9915;DHT22;4996;48.746;9.174;2023-04-06T13:48:00;17.30;40.10
9915;DHT22;4996;48.746;9.174;2023-04-06T13:50:26;17.10;40.40
9915;DHT22;4996;48.746;9.174;2023-04-06T13:52:52;17.10;41.10
9915;DHT22;4996;48.746;9.174;2023-04-06T13:55:18;16.80;41.30
9915;DHT22;4996;48.746;9.174;2023-04-06T13:57:44;16.40;41.80
9915;DHT22;4996;48.746;9.174;2023-04-06T14:00:10;16.40;41.20
9915;DHT22;4996;48.746;9.174;2023-04-06T14:02:40;16.30;41.20
9915;DHT22;4996;48.746;9.174;2023-04-06T14:05:06;16.30;41.10
9915;DHT22;4996;48.746;9.174;2023-04-06T14:07:32;16.40;41.70
9915;DHT22;4996;48.746;9.174;2023-04-06T14:09:58;16.60;41.60
9915;DHT22;4996;48.746;9.174;2023-04-06T14:12:23;16.30;41.30
9915;DHT22;4996;48.746;9.174;2023-04-06T14:14:49;16.30;40.80
9915;DHT22;4996;48.746;9.174;2023-04-06T14:17:15;16.20;41.00
9915;DHT22;4996;48.746;9.174;2023-04-06T14:19:41;16.20;40.90
9915;DHT22;4996;48.746;9.174;2023-04-06T14:22:06;16.00;41.10
9915;DHT22;4996;48.746;9.174;2023-04-06T14:24:32;15.70;41.00
9915;DHT22;4996;48.746;9.174;2023-04-06T14:26:59;15.60;41.00
9915;DHT22;4996;48.746;9.174;2023-04-06T14:29:24;15.30;41.30
9915;DHT22;4996;48.746;9.174;2023-04-06T14:31:50;15.30;41.50
9915;DHT22;4996;48.746;9.174;2023-04-06T14:34:15;15.60;41.90
9915;DHT22;4996;48.746;9.174;2023-04-06T14:36:42;15.90;41.90
9915;DHT22;4996;48.746;9.174;2023-04-06T14:39:07;16.10;42.10
9915;DHT22;4996;48.746;9.174;2023-04-06T14:41:34;16.30;43.10
9915;DHT22;4996;48.746;9.174;2023-04-06T14:44:00;16.30;42.40
9915;DHT22;4996;48.746;9.174;2023-04-06T14:46:26;16.10;42.10
9915;DHT22;4996;48.746;9.174;2023-04-06T14:48:54;16.20;42.50
9915;DHT22;4996;48.746;9.174;2023-04-06T14:51:21;15.90;42.40
9915;DHT22;4996;48.746;9.174;2023-04-06T14:53:46;16.00;42.10
9915;DHT22;4996;48.746;9.174;2023-04-06T14:56:12;16.10;42.20
9915;DHT22;4996;48.746;9.174;2023-04-06T14:58:37;15.80;41.60
9915;DHT22;4996;48.746;9.174;2023-04-06T15:01:03;16.00;42.50
9915;DHT22;4996;48.746;9.174;2023-04-06T15:03:29;15.80;42.50
9915;DHT22;4996;48.746;9.174;2023-04-06T15:05:56;15.90;42.40
9915;DHT22;4996;48.746;9.174;2023-04-06T15:08:22;16.00;41.70
9915;DHT22;4996;48.746;9.174;2023-04-06T15:10:49;16.00;42.20
9915;DHT22;4996;48.746;9.174;2023-04-06T15:13:15;15.90;42.00
9915;DHT22;4996;48.746;9.174;2023-04-06T15:15:41;15.50;41.70
9915;DHT22;4996;48.746;9.174;2023-04-06T15:18:07;15.70;42.00
9915;DHT22;4996;48.746;9.174;2023-04-06T15:20:33;15.70;43.00
9915;DHT22;4996;48.746;9.174;2023-04-06T15:23:00;15.70;42.90
9915;DHT22;4996;48.746;9.174;2023-04-06T15:25:26;15.60;42.10
9915;DHT22;4996;48.746;9.174;2023-04-06T15:27:51;15.70;43.10
9915;DHT22;4996;48.746;9.174;2023-04-06T15:30:17;15.60;42.60
9915;DHT22;4996;48.746;9.174;2023-04-06T15:32:57;15.70;42.80
9915;DHT22;4996;48.746;9.174;2023-04-06T15:35:23;15.70;42.60
9915;DHT22;4996;48.746;9.174;2023-04-06T15:37:48;15.60;43.20
9915;DHT22;4996;48.746;9.174;2023-04-06T15:40:14;15.50;42.00
9915;DHT22;4996;48.746;9.174;2023-04-06T15:42:41;15.50;42.70
9915;DHT22;4996;48.746;9.174;2023-04-06T15:45:11;15.50;42.80
9915;DHT22;4996;48.746;9.174;2023-04-06T15:47:38;15.40;43.70
9915;DHT22;4996;48.746;9.174;2023-04-06T15:50:04;15.30;44.10
9915;DHT22;4996;48.746;9.174;2023-04-06T15:52:30;15.40;44.80
9915;DHT22;4996;48.746;9.174;2023-04-06T15:54:56;15.00;45.10
9915;DHT22;4996;48.746;9.174;2023-04-06T15:57:21;14.80;46.10
9915;DHT22;4996;48.746;9.174;2023-04-06T15:59:47;14.90;45.70
9915;DHT22;4996;48.746;9.174;2023-04-06T16:02:12;14.90;45.40
9915;DHT22;4996;48.746;9.174;2023-04-06T16:04:38;15.00;45.50